sensor_id;sensor_type;location;lat;lon;timestamp;P1;durP1;ratioP1;P2;durP2;ratioP2
75798;SDS011;70422;44.692;37.768;2023-06-01T00:00:08;3.03;;;1.77;;
75798;SDS011;70422;44.692;37.768;2023-06-01T00:01:15;2.85;;;1.52;;
75798;SDS011;70422;44.692;37.768;2023-06-01T00:02:18;3.05;;;1.83;;
75798;SDS011;70422;44.692;37.768;2023-06-01T00:03:20;3.75;;;3.45;;
75798;SDS011;70422;44.692;37.768;2023-06-01T00:04:21;2.83;;;2.05;;
75798;SDS011;70422;44.692;37.768;2023-06-01T00:05:23;2.53;;;1.52;;
75798;SDS011;70422;44.692;37.768;2023-06-01T00:06:25;3.97;;;2.30;;
75798;SDS011;70422;44.692;37.768;2023-06-01T00:07:31;3.03;;;1.85;;
75798;SDS011;70422;44.692;37.768;2023-06-01T00:08:34;2.80;;;1.60;;
75798;SDS011;70422;44.692;37.768;2023-06-01T00:09:36;2.72;;;1.60;;
75798;SDS011;70422;44.692;37.768;2023-06-01T00:10:38;3.42;;;1.52;;
75798;SDS011;70422;44.692;37.768;2023-06-01T00:11:40;3.13;;;2.13;;
75798;SDS011;70422;44.692;37.768;2023-06-01T00:12:42;3.15;;;1.75;;
75798;SDS011;70422;44.692;37.768;2023-06-01T00:13:44;2.85;;;1.88;;
75798;SDS011;70422;44.692;37.768;2023-06-01T00:14:47;2.70;;;1.50;;
75798;SDS011;70422;44.692;37.768;2023-06-01T00:15:48;2.95;;;1.67;;
75798;SDS011;70422;44.692;37.768;2023-06-01T00:16:52;3.30;;;1.63;;
75798;SDS011;70422;44.692;37.768;2023-06-01T00:17:54;3.35;;;3.05;;
75798;SDS011;70422;44.692;37.768;2023-06-01T00:18:57;3.47;;;1.60;;
75798;SDS011;70422;44.692;37.768;2023-06-01T00:20:01;3.83;;;3.15;;
75798;SDS011;70422;44.692;37.768;2023-06-01T00:21:08;3.17;;;1.85;;
75798;SDS011;70422;44.692;37.768;2023-06-01T00:22:10;3.22;;;1.50;;
75798;SDS011;70422;44.692;37.768;2023-06-01T00:23:12;3.80;;;2.53;;
75798;SDS011;70422;44.692;37.768;2023-06-01T00:24:16;3.60;;;2.75;;
75798;SDS011;70422;44.692;37.768;2023-06-01T00:25:18;3.67;;;1.83;;
75798;SDS011;70422;44.692;37.768;2023-06-01T00:26:20;2.72;;;1.98;;
75798;SDS011;70422;44.692;37.768;2023-06-01T00:27:25;2.95;;;1.50;;
75798;SDS011;70422;44.692;37.768;2023-06-01T00:28:27;3.25;;;1.70;;
75798;SDS011;70422;44.692;37.768;2023-06-01T00:29:29;3.22;;;1.90;;
75798;SDS011;70422;44.692;37.768;2023-06-01T00:30:31;3.45;;;2.10;;
75798;SDS011;70422;44.692;37.768;2023-06-01T00:31:33;3.50;;;1.95;;
75798;SDS011;70422;44.692;37.768;2023-06-01T00:32:34;3.78;;;2.40;;
75798;SDS011;70422;44.692;37.768;2023-06-01T00:33:36;2.78;;;1.60;;
75798;SDS011;70422;44.692;37.768;2023-06-01T00:34:38;4.07;;;2.20;;
75798;SDS011;70422;44.692;37.768;2023-06-01T00:35:40;3.10;;;1.83;;
75798;SDS011;70422;44.692;37.768;2023-06-01T00:36:42;3.78;;;1.90;;
75798;SDS011;70422;44.692;37.768;2023-06-01T00:37:44;3.25;;;1.80;;
75798;SDS011;70422;44.692;37.768;2023-06-01T00:38:46;3.08;;;1.80;;
75798;SDS011;70422;44.692;37.768;2023-06-01T00:39:48;3.53;;;1.85;;
75798;SDS011;70422;44.692;37.768;2023-06-01T00:40:50;3.13;;;2.03;;
75798;SDS011;70422;44.692;37.768;2023-06-01T00:41:52;3.47;;;2.42;;
75798;SDS011;70422;44.692;37.768;2023-06-01T00:42:54;3.22;;;1.67;;
75798;SDS011;70422;44.692;37.768;2023-06-01T00:43:55;2.75;;;1.85;;
75798;SDS011;70422;44.692;37.768;2023-06-01T00:44:57;3.28;;;1.88;;
75798;SDS011;70422;44.692;37.768;2023-06-01T00:46:00;4.50;;;4.10;;
75798;SDS011;70422;44.692;37.768;2023-06-01T00:47:02;5.30;;;3.35;;
75798;SDS011;70422;44.692;37.768;2023-06-01T00:48:04;3.53;;;3.15;;
75798;SDS011;70422;44.692;37.768;2023-06-01T00:49:06;3.38;;;1.98;;
75798;SDS011;70422;44.692;37.768;2023-06-01T00:50:09;3.35;;;1.65;;
75798;SDS011;70422;44.692;37.768;2023-06-01T00:51:13;3.08;;;1.95;;
75798;SDS011;70422;44.692;37.768;2023-06-01T00:52:16;2.53;;;1.60;;
75798;SDS011;70422;44.692;37.768;2023-06-01T00:53:19;3.10;;;1.77;;
75798;SDS011;70422;44.692;37.768;2023-06-01T00:54:21;3.95;;;3.60;;
75798;SDS011;70422;44.692;37.768;2023-06-01T00:55:23;3.38;;;3.08;;
75798;SDS011;70422;44.692;37.768;2023-06-01T00:56:25;4.47;;;3.80;;
75798;SDS011;70422;44.692;37.768;2023-06-01T00:57:27;3.05;;;1.95;;
75798;SDS011;70422;44.692;37.768;2023-06-01T00:58:30;4.75;;;3.67;;
75798;SDS011;70422;44.692;37.768;2023-06-01T00:59:33;3.25;;;2.00;;
75798;SDS011;70422;44.692;37.768;2023-06-01T01:00:36;3.03;;;1.77;;
75798;SDS011;70422;44.692;37.768;2023-06-01T01:01:41;2.42;;;1.65;;
75798;SDS011;70422;44.692;37.768;2023-06-01T01:03:46;2.97;;;1.77;;
75798;SDS011;70422;44.692;37.768;2023-06-01T01:04:51;3.20;;;1.73;;
75798;SDS011;70422;44.692;37.768;2023-06-01T01:05:57;2.35;;;1.80;;
75798;SDS011;70422;44.692;37.768;2023-06-01T01:07:15;3.17;;;1.70;;
75798;SDS011;70422;44.692;37.768;2023-06-01T01:09:33;3.05;;;1.60;;
75798;SDS011;70422;44.692;37.768;2023-06-01T01:10:50;3.40;;;1.83;;
75798;SDS011;70422;44.692;37.768;2023-06-01T01:12:18;4.32;;;3.95;;
75798;SDS011;70422;44.692;37.768;2023-06-01T01:13:30;3.40;;;2.17;;
75798;SDS011;70422;44.692;37.768;2023-06-01T01:18:21;2.55;;;1.63;;
75798;SDS011;70422;44.692;37.768;2023-06-01T01:20:55;3.60;;;1.80;;
75798;SDS011;70422;44.692;37.768;2023-06-01T01:22:25;3.13;;;1.45;;
75798;SDS011;70422;44.692;37.768;2023-06-01T01:24:58;3.13;;;1.77;;
75798;SDS011;70422;44.692;37.768;2023-06-01T01:27:30;3.30;;;1.92;;
75798;SDS011;70422;44.692;37.768;2023-06-01T01:29:59;3.33;;;2.13;;
75798;SDS011;70422;44.692;37.768;2023-06-01T01:31:07;3.22;;;1.80;;
75798;SDS011;70422;44.692;37.768;2023-06-01T01:32:12;3.30;;;1.80;;
75798;SDS011;70422;44.692;37.768;2023-06-01T01:33:14;3.33;;;1.88;;
75798;SDS011;70422;44.692;37.768;2023-06-01T01:34:17;4.10;;;2.97;;
75798;SDS011;70422;44.692;37.768;2023-06-01T01:35:22;3.45;;;2.20;;
75798;SDS011;70422;44.692;37.768;2023-06-01T01:36:25;3.00;;;1.88;;
75798;SDS011;70422;44.692;37.768;2023-06-01T01:37:27;3.65;;;1.98;;
75798;SDS011;70422;44.692;37.768;2023-06-01T01:38:28;3.83;;;2.00;;
75798;SDS011;70422;44.692;37.768;2023-06-01T01:39:30;3.22;;;1.95;;
75798;SDS011;70422;44.692;37.768;2023-06-01T01:40:31;3.50;;;1.92;;
75798;SDS011;70422;44.692;37.768;2023-06-01T01:41:33;3.70;;;2.35;;
75798;SDS011;70422;44.692;37.768;2023-06-01T01:42:34;3.65;;;3.35;;
75798;SDS011;70422;44.692;37.768;2023-06-01T01:43:37;2.97;;;1.70;;
75798;SDS011;70422;44.692;37.768;2023-06-01T01:44:39;3.72;;;3.42;;
75798;SDS011;70422;44.692;37.768;2023-06-01T01:45:41;4.10;;;3.80;;
75798;SDS011;70422;44.692;37.768;2023-06-01T01:46:52;2.53;;;1.65;;
75798;SDS011;70422;44.692;37.768;2023-06-01T01:48:09;4.05;;;1.75;;
75798;SDS011;70422;44.692;37.768;2023-06-01T01:49:19;3.80;;;1.90;;
75798;SDS011;70422;44.692;37.768;2023-06-01T01:50:52;3.42;;;1.77;;
75798;SDS011;70422;44.692;37.768;2023-06-01T01:53:19;2.95;;;1.80;;
75798;SDS011;70422;44.692;37.768;2023-06-01T01:54:24;4.32;;;3.92;;
75798;SDS011;70422;44.692;37.768;2023-06-01T01:55:26;2.88;;;1.80;;
75798;SDS011;70422;44.692;37.768;2023-06-01T01:56:29;3.35;;;1.98;;
75798;SDS011;70422;44.692;37.768;2023-06-01T01:57:32;3.40;;;2.10;;
75798;SDS011;70422;44.692;37.768;2023-06-01T01:58:35;2.72;;;1.70;;
75798;SDS011;70422;44.692;37.768;2023-06-01T01:59:37;2.80;;;1.58;;
75798;SDS011;70422;44.692;37.768;2023-06-01T02:00:40;3.38;;;2.08;;
75798;SDS011;70422;44.692;37.768;2023-06-01T02:01:43;3.45;;;2.20;;
75798;SDS011;70422;44.692;37.768;2023-06-01T02:02:45;2.38;;;1.50;;
75798;SDS011;70422;44.692;37.768;2023-06-01T02:03:53;2.90;;;1.80;;
75798;SDS011;70422;44.692;37.768;2023-06-01T02:05:10;3.00;;;2.00;;
75798;SDS011;70422;44.692;37.768;2023-06-01T02:06:11;3.65;;;2.03;;
75798;SDS011;70422;44.692;37.768;2023-06-01T02:07:14;3.05;;;1.58;;
75798;SDS011;70422;44.692;37.768;2023-06-01T02:08:17;3.45;;;1.80;;
75798;SDS011;70422;44.692;37.768;2023-06-01T02:09:18;3.40;;;2.10;;
75798;SDS011;70422;44.692;37.768;2023-06-01T02:10:20;3.47;;;2.00;;
75798;SDS011;70422;44.692;37.768;2023-06-01T02:11:22;3.05;;;1.30;;
75798;SDS011;70422;44.692;37.768;2023-06-01T02:12:23;2.60;;;1.60;;
75798;SDS011;70422;44.692;37.768;2023-06-01T02:13:25;3.10;;;1.98;;
75798;SDS011;70422;44.692;37.768;2023-06-01T02:14:26;3.50;;;2.53;;
75798;SDS011;70422;44.692;37.768;2023-06-01T02:15:28;3.92;;;3.58;;
75798;SDS011;70422;44.692;37.768;2023-06-01T02:16:29;3.83;;;3.42;;
75798;SDS011;70422;44.692;37.768;2023-06-01T02:17:31;4.15;;;3.75;;
75798;SDS011;70422;44.692;37.768;2023-06-01T02:18:33;3.00;;;1.77;;
75798;SDS011;70422;44.692;37.768;2023-06-01T02:19:40;3.72;;;2.65;;
75798;SDS011;70422;44.692;37.768;2023-06-01T02:20:41;4.15;;;2.35;;
75798;SDS011;70422;44.692;37.768;2023-06-01T02:21:43;2.95;;;2.05;;
75798;SDS011;70422;44.692;37.768;2023-06-01T02:22:45;3.20;;;1.63;;
75798;SDS011;70422;44.692;37.768;2023-06-01T02:23:46;2.78;;;1.60;;
75798;SDS011;70422;44.692;37.768;2023-06-01T02:24:48;4.72;;;2.08;;
75798;SDS011;70422;44.692;37.768;2023-06-01T02:25:49;3.53;;;2.30;;
75798;SDS011;70422;44.692;37.768;2023-06-01T02:26:52;3.15;;;1.67;;
75798;SDS011;70422;44.692;37.768;2023-06-01T02:27:54;3.33;;;1.92;;
75798;SDS011;70422;44.692;37.768;2023-06-01T02:28:56;3.53;;;1.92;;
75798;SDS011;70422;44.692;37.768;2023-06-01T02:29:58;2.25;;;1.60;;
75798;SDS011;70422;44.692;37.768;2023-06-01T02:31:00;3.40;;;1.70;;
75798;SDS011;70422;44.692;37.768;2023-06-01T02:32:01;2.88;;;2.47;;
75798;SDS011;70422;44.692;37.768;2023-06-01T02:33:03;3.13;;;1.70;;
75798;SDS011;70422;44.692;37.768;2023-06-01T02:34:04;2.83;;;1.73;;
75798;SDS011;70422;44.692;37.768;2023-06-01T02:35:06;3.40;;;2.10;;
75798;SDS011;70422;44.692;37.768;2023-06-01T02:36:08;3.30;;;1.67;;
75798;SDS011;70422;44.692;37.768;2023-06-01T02:37:09;2.67;;;1.65;;
75798;SDS011;70422;44.692;37.768;2023-06-01T02:38:12;3.03;;;1.80;;
75798;SDS011;70422;44.692;37.768;2023-06-01T02:39:14;2.78;;;1.77;;
75798;SDS011;70422;44.692;37.768;2023-06-01T02:40:15;3.15;;;1.77;;
75798;SDS011;70422;44.692;37.768;2023-06-01T02:41:17;3.50;;;1.95;;
75798;SDS011;70422;44.692;37.768;2023-06-01T02:42:19;3.25;;;1.88;;
75798;SDS011;70422;44.692;37.768;2023-06-01T02:43:21;2.58;;;1.55;;
75798;SDS011;70422;44.692;37.768;2023-06-01T02:44:22;3.47;;;1.98;;
75798;SDS011;70422;44.692;37.768;2023-06-01T02:45:24;2.97;;;1.90;;
75798;SDS011;70422;44.692;37.768;2023-06-01T02:46:26;3.38;;;1.88;;
75798;SDS011;70422;44.692;37.768;2023-06-01T02:47:27;3.67;;;3.28;;
75798;SDS011;70422;44.692;37.768;2023-06-01T02:48:29;3.17;;;1.63;;
75798;SDS011;70422;44.692;37.768;2023-06-01T02:49:31;2.60;;;1.67;;
75798;SDS011;70422;44.692;37.768;2023-06-01T02:50:33;3.42;;;2.17;;
75798;SDS011;70422;44.692;37.768;2023-06-01T02:51:34;3.10;;;2.08;;
75798;SDS011;70422;44.692;37.768;2023-06-01T02:52:46;3.28;;;1.70;;
75798;SDS011;70422;44.692;37.768;2023-06-01T02:53:47;3.88;;;3.47;;
75798;SDS011;70422;44.692;37.768;2023-06-01T02:54:49;2.78;;;1.95;;
75798;SDS011;70422;44.692;37.768;2023-06-01T02:56:09;3.13;;;1.65;;
75798;SDS011;70422;44.692;37.768;2023-06-01T02:57:31;2.47;;;1.55;;
75798;SDS011;70422;44.692;37.768;2023-06-01T02:58:37;3.28;;;1.88;;
75798;SDS011;70422;44.692;37.768;2023-06-01T02:59:46;3.25;;;2.00;;
75798;SDS011;70422;44.692;37.768;2023-06-01T03:00:47;2.63;;;1.88;;
75798;SDS011;70422;44.692;37.768;2023-06-01T03:01:49;3.17;;;1.90;;
75798;SDS011;70422;44.692;37.768;2023-06-01T03:02:51;4.53;;;3.55;;
75798;SDS011;70422;44.692;37.768;2023-06-01T03:04:55;2.80;;;1.60;;
75798;SDS011;70422;44.692;37.768;2023-06-01T03:05:57;3.05;;;2.03;;
75798;SDS011;70422;44.692;37.768;2023-06-01T03:07:21;4.35;;;1.80;;
75798;SDS011;70422;44.692;37.768;2023-06-01T03:08:26;4.10;;;3.80;;
75798;SDS011;70422;44.692;37.768;2023-06-01T03:09:28;2.88;;;2.00;;
75798;SDS011;70422;44.692;37.768;2023-06-01T03:10:37;3.10;;;1.95;;
75798;SDS011;70422;44.692;37.768;2023-06-01T03:11:46;3.25;;;2.20;;
75798;SDS011;70422;44.692;37.768;2023-06-01T03:12:47;4.18;;;3.78;;
75798;SDS011;70422;44.692;37.768;2023-06-01T03:13:49;2.75;;;1.50;;
75798;SDS011;70422;44.692;37.768;2023-06-01T03:14:51;3.25;;;1.80;;
75798;SDS011;70422;44.692;37.768;2023-06-01T03:15:52;2.75;;;1.80;;
75798;SDS011;70422;44.692;37.768;2023-06-01T03:16:54;3.03;;;1.95;;
75798;SDS011;70422;44.692;37.768;2023-06-01T03:17:56;3.17;;;2.03;;
75798;SDS011;70422;44.692;37.768;2023-06-01T03:18:58;3.08;;;2.03;;
75798;SDS011;70422;44.692;37.768;2023-06-01T03:19:59;2.80;;;2.03;;
75798;SDS011;70422;44.692;37.768;2023-06-01T03:21:01;2.97;;;1.85;;
75798;SDS011;70422;44.692;37.768;2023-06-01T03:22:03;3.17;;;2.17;;
75798;SDS011;70422;44.692;37.768;2023-06-01T03:23:04;2.80;;;1.92;;
75798;SDS011;70422;44.692;37.768;2023-06-01T03:24:06;2.95;;;1.92;;
75798;SDS011;70422;44.692;37.768;2023-06-01T03:25:08;2.92;;;2.10;;
75798;SDS011;70422;44.692;37.768;2023-06-01T03:26:10;2.53;;;1.50;;
75798;SDS011;70422;44.692;37.768;2023-06-01T03:27:15;2.90;;;1.88;;
75798;SDS011;70422;44.692;37.768;2023-06-01T03:28:17;3.10;;;1.58;;
75798;SDS011;70422;44.692;37.768;2023-06-01T03:29:18;3.13;;;1.85;;
75798;SDS011;70422;44.692;37.768;2023-06-01T03:30:21;3.53;;;3.22;;
75798;SDS011;70422;44.692;37.768;2023-06-01T03:31:23;2.72;;;1.55;;
75798;SDS011;70422;44.692;37.768;2023-06-01T03:32:29;3.22;;;2.05;;
75798;SDS011;70422;44.692;37.768;2023-06-01T03:33:33;3.25;;;1.75;;
75798;SDS011;70422;44.692;37.768;2023-06-01T03:34:35;4.07;;;2.28;;
75798;SDS011;70422;44.692;37.768;2023-06-01T03:35:37;3.03;;;1.88;;
75798;SDS011;70422;44.692;37.768;2023-06-01T03:36:40;3.15;;;1.80;;
75798;SDS011;70422;44.692;37.768;2023-06-01T03:37:42;3.65;;;1.88;;
75798;SDS011;70422;44.692;37.768;2023-06-01T03:38:46;3.13;;;1.73;;
75798;SDS011;70422;44.692;37.768;2023-06-01T03:39:47;3.25;;;2.00;;
75798;SDS011;70422;44.692;37.768;2023-06-01T03:40:49;3.10;;;1.70;;
75798;SDS011;70422;44.692;37.768;2023-06-01T03:41:51;3.25;;;2.03;;
75798;SDS011;70422;44.692;37.768;2023-06-01T03:42:52;3.08;;;1.50;;
75798;SDS011;70422;44.692;37.768;2023-06-01T03:43:54;3.00;;;1.75;;
75798;SDS011;70422;44.692;37.768;2023-06-01T03:44:56;3.53;;;1.98;;
75798;SDS011;70422;44.692;37.768;2023-06-01T03:45:57;4.00;;;3.60;;
75798;SDS011;70422;44.692;37.768;2023-06-01T03:46:59;4.03;;;3.67;;
75798;SDS011;70422;44.692;37.768;2023-06-01T03:48:01;3.42;;;1.92;;
75798;SDS011;70422;44.692;37.768;2023-06-01T03:49:02;2.72;;;1.75;;
75798;SDS011;70422;44.692;37.768;2023-06-01T03:50:06;4.47;;;2.03;;
75798;SDS011;70422;44.692;37.768;2023-06-01T03:51:09;3.75;;;2.13;;
75798;SDS011;70422;44.692;37.768;2023-06-01T03:52:11;2.90;;;1.75;;
75798;SDS011;70422;44.692;37.768;2023-06-01T03:53:12;2.83;;;1.70;;
75798;SDS011;70422;44.692;37.768;2023-06-01T03:54:15;2.80;;;1.85;;
75798;SDS011;70422;44.692;37.768;2023-06-01T03:55:16;3.03;;;1.98;;
75798;SDS011;70422;44.692;37.768;2023-06-01T03:56:53;2.83;;;1.75;;
75798;SDS011;70422;44.692;37.768;2023-06-01T03:57:54;4.07;;;2.55;;
75798;SDS011;70422;44.692;37.768;2023-06-01T03:58:57;3.10;;;1.70;;
75798;SDS011;70422;44.692;37.768;2023-06-01T04:00:00;3.22;;;2.00;;
75798;SDS011;70422;44.692;37.768;2023-06-01T04:01:06;2.50;;;1.65;;
75798;SDS011;70422;44.692;37.768;2023-06-01T04:02:09;3.17;;;2.05;;
75798;SDS011;70422;44.692;37.768;2023-06-01T04:03:11;2.88;;;1.80;;
75798;SDS011;70422;44.692;37.768;2023-06-01T04:04:14;3.88;;;2.28;;
75798;SDS011;70422;44.692;37.768;2023-06-01T04:05:21;4.25;;;3.85;;
75798;SDS011;70422;44.692;37.768;2023-06-01T04:06:24;3.78;;;2.08;;
75798;SDS011;70422;44.692;37.768;2023-06-01T04:07:31;4.38;;;3.97;;
75798;SDS011;70422;44.692;37.768;2023-06-01T04:08:32;3.50;;;1.77;;
75798;SDS011;70422;44.692;37.768;2023-06-01T04:09:34;2.92;;;1.77;;
75798;SDS011;70422;44.692;37.768;2023-06-01T04:10:38;3.92;;;3.53;;
75798;SDS011;70422;44.692;37.768;2023-06-01T04:11:42;3.50;;;3.20;;
75798;SDS011;70422;44.692;37.768;2023-06-01T04:12:44;3.15;;;2.25;;
75798;SDS011;70422;44.692;37.768;2023-06-01T04:13:47;3.72;;;2.10;;
75798;SDS011;70422;44.692;37.768;2023-06-01T04:14:49;3.55;;;2.30;;
75798;SDS011;70422;44.692;37.768;2023-06-01T04:15:51;3.47;;;1.85;;
75798;SDS011;70422;44.692;37.768;2023-06-01T04:16:55;4.40;;;3.35;;
75798;SDS011;70422;44.692;37.768;2023-06-01T04:17:57;3.22;;;1.80;;
75798;SDS011;70422;44.692;37.768;2023-06-01T04:18:59;3.78;;;3.40;;
75798;SDS011;70422;44.692;37.768;2023-06-01T04:20:04;2.70;;;1.92;;
75798;SDS011;70422;44.692;37.768;2023-06-01T04:21:07;3.35;;;2.13;;
75798;SDS011;70422;44.692;37.768;2023-06-01T04:22:10;3.83;;;2.00;;
75798;SDS011;70422;44.692;37.768;2023-06-01T04:23:11;3.95;;;1.80;;
75798;SDS011;70422;44.692;37.768;2023-06-01T04:24:13;3.53;;;2.30;;
75798;SDS011;70422;44.692;37.768;2023-06-01T04:25:15;3.38;;;2.05;;
75798;SDS011;70422;44.692;37.768;2023-06-01T04:26:23;2.95;;;1.95;;
75798;SDS011;70422;44.692;37.768;2023-06-01T04:28:28;3.22;;;1.92;;
75798;SDS011;70422;44.692;37.768;2023-06-01T04:29:45;3.35;;;2.20;;
75798;SDS011;70422;44.692;37.768;2023-06-01T04:30:49;3.97;;;2.15;;
75798;SDS011;70422;44.692;37.768;2023-06-01T04:31:52;3.75;;;1.92;;
75798;SDS011;70422;44.692;37.768;2023-06-01T04:32:56;4.93;;;2.50;;
75798;SDS011;70422;44.692;37.768;2023-06-01T04:33:58;4.07;;;2.33;;
75798;SDS011;70422;44.692;37.768;2023-06-01T04:35:06;3.28;;;2.13;;
75798;SDS011;70422;44.692;37.768;2023-06-01T04:36:11;3.47;;;1.98;;
75798;SDS011;70422;44.692;37.768;2023-06-01T04:37:14;3.03;;;1.63;;
75798;SDS011;70422;44.692;37.768;2023-06-01T04:38:16;3.10;;;2.17;;
75798;SDS011;70422;44.692;37.768;2023-06-01T04:39:20;2.38;;;1.67;;
75798;SDS011;70422;44.692;37.768;2023-06-01T04:40:22;2.70;;;1.92;;
75798;SDS011;70422;44.692;37.768;2023-06-01T04:41:24;3.10;;;2.10;;
75798;SDS011;70422;44.692;37.768;2023-06-01T04:42:27;3.22;;;2.28;;
75798;SDS011;70422;44.692;37.768;2023-06-01T04:43:30;3.05;;;1.80;;
75798;SDS011;70422;44.692;37.768;2023-06-01T04:44:32;4.80;;;3.75;;
75798;SDS011;70422;44.692;37.768;2023-06-01T04:45:34;4.25;;;2.20;;
75798;SDS011;70422;44.692;37.768;2023-06-01T04:46:39;3.30;;;2.25;;
75798;SDS011;70422;44.692;37.768;2023-06-01T04:47:42;3.75;;;1.90;;
75798;SDS011;70422;44.692;37.768;2023-06-01T04:48:53;2.97;;;2.17;;
75798;SDS011;70422;44.692;37.768;2023-06-01T04:50:00;2.72;;;1.85;;
75798;SDS011;70422;44.692;37.768;2023-06-01T04:51:05;4.20;;;3.90;;
75798;SDS011;70422;44.692;37.768;2023-06-01T04:52:07;3.17;;;2.30;;
75798;SDS011;70422;44.692;37.768;2023-06-01T04:53:12;3.03;;;1.73;;
75798;SDS011;70422;44.692;37.768;2023-06-01T04:54:14;3.72;;;1.95;;
75798;SDS011;70422;44.692;37.768;2023-06-01T04:55:20;4.60;;;4.18;;
75798;SDS011;70422;44.692;37.768;2023-06-01T04:56:22;4.05;;;3.53;;
75798;SDS011;70422;44.692;37.768;2023-06-01T04:57:28;2.80;;;2.15;;
75798;SDS011;70422;44.692;37.768;2023-06-01T04:58:30;3.35;;;2.15;;
75798;SDS011;70422;44.692;37.768;2023-06-01T04:59:33;3.20;;;1.70;;
75798;SDS011;70422;44.692;37.768;2023-06-01T05:00:34;4.15;;;3.75;;
75798;SDS011;70422;44.692;37.768;2023-06-01T05:01:36;9.02;;;2.55;;
75798;SDS011;70422;44.692;37.768;2023-06-01T05:02:40;6.97;;;3.25;;
75798;SDS011;70422;44.692;37.768;2023-06-01T05:03:42;7.88;;;5.10;;
75798;SDS011;70422;44.692;37.768;2023-06-01T05:04:44;7.03;;;3.40;;
75798;SDS011;70422;44.692;37.768;2023-06-01T05:05:46;5.78;;;3.38;;
75798;SDS011;70422;44.692;37.768;2023-06-01T05:06:48;6.90;;;4.60;;
75798;SDS011;70422;44.692;37.768;2023-06-01T05:07:49;10.85;;;8.18;;
75798;SDS011;70422;44.692;37.768;2023-06-01T05:08:51;13.15;;;11.43;;
75798;SDS011;70422;44.692;37.768;2023-06-01T05:09:53;13.55;;;11.02;;
75798;SDS011;70422;44.692;37.768;2023-06-01T05:10:55;12.73;;;7.50;;
75798;SDS011;70422;44.692;37.768;2023-06-01T05:11:57;10.20;;;7.28;;
75798;SDS011;70422;44.692;37.768;2023-06-01T05:12:58;11.27;;;9.07;;
75798;SDS011;70422;44.692;37.768;2023-06-01T05:14:00;10.43;;;8.68;;
75798;SDS011;70422;44.692;37.768;2023-06-01T05:15:06;9.15;;;5.70;;
75798;SDS011;70422;44.692;37.768;2023-06-01T05:16:09;9.02;;;6.40;;
75798;SDS011;70422;44.692;37.768;2023-06-01T05:17:11;8.80;;;6.03;;
75798;SDS011;70422;44.692;37.768;2023-06-01T05:18:13;7.38;;;5.07;;
75798;SDS011;70422;44.692;37.768;2023-06-01T05:19:14;9.00;;;4.97;;
75798;SDS011;70422;44.692;37.768;2023-06-01T05:20:17;9.00;;;5.05;;
75798;SDS011;70422;44.692;37.768;2023-06-01T05:21:24;8.55;;;5.22;;
75798;SDS011;70422;44.692;37.768;2023-06-01T05:22:26;8.27;;;4.68;;
75798;SDS011;70422;44.692;37.768;2023-06-01T05:23:27;10.32;;;5.45;;
75798;SDS011;70422;44.692;37.768;2023-06-01T05:24:30;8.85;;;4.82;;
75798;SDS011;70422;44.692;37.768;2023-06-01T05:25:31;7.20;;;4.43;;
75798;SDS011;70422;44.692;37.768;2023-06-01T05:26:33;6.20;;;3.83;;
75798;SDS011;70422;44.692;37.768;2023-06-01T05:27:34;6.43;;;3.63;;
75798;SDS011;70422;44.692;37.768;2023-06-01T05:28:36;7.10;;;4.00;;
75798;SDS011;70422;44.692;37.768;2023-06-01T05:29:40;6.90;;;3.50;;
75798;SDS011;70422;44.692;37.768;2023-06-01T05:30:42;6.90;;;4.13;;
75798;SDS011;70422;44.692;37.768;2023-06-01T05:31:43;6.95;;;3.92;;
75798;SDS011;70422;44.692;37.768;2023-06-01T05:32:46;7.43;;;3.80;;
75798;SDS011;70422;44.692;37.768;2023-06-01T05:33:51;6.45;;;3.67;;
75798;SDS011;70422;44.692;37.768;2023-06-01T05:34:52;7.15;;;3.92;;
75798;SDS011;70422;44.692;37.768;2023-06-01T05:35:54;8.05;;;4.03;;
75798;SDS011;70422;44.692;37.768;2023-06-01T05:37:00;5.70;;;3.33;;
75798;SDS011;70422;44.692;37.768;2023-06-01T05:38:02;5.82;;;3.65;;
75798;SDS011;70422;44.692;37.768;2023-06-01T05:39:04;7.85;;;5.28;;
75798;SDS011;70422;44.692;37.768;2023-06-01T05:40:07;6.30;;;3.70;;
75798;SDS011;70422;44.692;37.768;2023-06-01T05:41:10;7.38;;;5.45;;
75798;SDS011;70422;44.692;37.768;2023-06-01T05:42:11;6.03;;;3.10;;
75798;SDS011;70422;44.692;37.768;2023-06-01T05:43:14;6.82;;;3.72;;
75798;SDS011;70422;44.692;37.768;2023-06-01T05:44:16;8.05;;;3.00;;
75798;SDS011;70422;44.692;37.768;2023-06-01T05:45:18;8.77;;;3.58;;
75798;SDS011;70422;44.692;37.768;2023-06-01T05:46:22;8.57;;;3.40;;
75798;SDS011;70422;44.692;37.768;2023-06-01T05:47:25;7.03;;;3.65;;
75798;SDS011;70422;44.692;37.768;2023-06-01T05:48:26;6.88;;;4.18;;
75798;SDS011;70422;44.692;37.768;2023-06-01T05:49:29;7.45;;;3.60;;
75798;SDS011;70422;44.692;37.768;2023-06-01T05:50:32;6.32;;;3.05;;
75798;SDS011;70422;44.692;37.768;2023-06-01T05:51:33;5.53;;;2.80;;
75798;SDS011;70422;44.692;37.768;2023-06-01T05:52:38;6.32;;;3.25;;
75798;SDS011;70422;44.692;37.768;2023-06-01T05:53:43;5.88;;;2.67;;
75798;SDS011;70422;44.692;37.768;2023-06-01T05:54:45;5.70;;;3.38;;
75798;SDS011;70422;44.692;37.768;2023-06-01T05:55:50;8.77;;;3.20;;
75798;SDS011;70422;44.692;37.768;2023-06-01T05:56:52;6.00;;;3.65;;
75798;SDS011;70422;44.692;37.768;2023-06-01T05:57:55;8.38;;;3.42;;
75798;SDS011;70422;44.692;37.768;2023-06-01T05:58:56;8.60;;;2.85;;
75798;SDS011;70422;44.692;37.768;2023-06-01T06:00:00;7.40;;;3.28;;
75798;SDS011;70422;44.692;37.768;2023-06-01T06:01:01;8.77;;;3.47;;
75798;SDS011;70422;44.692;37.768;2023-06-01T06:02:03;5.65;;;3.20;;
75798;SDS011;70422;44.692;37.768;2023-06-01T06:03:05;7.03;;;3.83;;
75798;SDS011;70422;44.692;37.768;2023-06-01T06:04:07;6.85;;;3.13;;
75798;SDS011;70422;44.692;37.768;2023-06-01T06:05:09;7.47;;;2.92;;
75798;SDS011;70422;44.692;37.768;2023-06-01T06:06:11;5.18;;;2.97;;
75798;SDS011;70422;44.692;37.768;2023-06-01T06:07:13;8.30;;;3.92;;
75798;SDS011;70422;44.692;37.768;2023-06-01T06:08:15;7.32;;;4.25;;
75798;SDS011;70422;44.692;37.768;2023-06-01T06:09:16;6.25;;;3.38;;
75798;SDS011;70422;44.692;37.768;2023-06-01T06:10:18;7.10;;;3.53;;
75798;SDS011;70422;44.692;37.768;2023-06-01T06:11:20;9.75;;;3.25;;
75798;SDS011;70422;44.692;37.768;2023-06-01T06:12:23;9.18;;;3.65;;
75798;SDS011;70422;44.692;37.768;2023-06-01T06:13:24;8.60;;;3.42;;
75798;SDS011;70422;44.692;37.768;2023-06-01T06:14:26;4.55;;;3.13;;
75798;SDS011;70422;44.692;37.768;2023-06-01T06:15:28;8.48;;;3.55;;
75798;SDS011;70422;44.692;37.768;2023-06-01T06:16:30;7.15;;;3.25;;
75798;SDS011;70422;44.692;37.768;2023-06-01T06:17:32;6.20;;;3.35;;
75798;SDS011;70422;44.692;37.768;2023-06-01T06:18:35;6.00;;;3.38;;
75798;SDS011;70422;44.692;37.768;2023-06-01T06:19:36;7.85;;;3.17;;
75798;SDS011;70422;44.692;37.768;2023-06-01T06:20:38;7.35;;;3.17;;
75798;SDS011;70422;44.692;37.768;2023-06-01T06:21:40;7.57;;;3.38;;
75798;SDS011;70422;44.692;37.768;2023-06-01T06:22:42;8.00;;;3.50;;
75798;SDS011;70422;44.692;37.768;2023-06-01T06:23:44;8.50;;;3.15;;
75798;SDS011;70422;44.692;37.768;2023-06-01T06:24:46;4.93;;;2.80;;
75798;SDS011;70422;44.692;37.768;2023-06-01T06:25:48;7.80;;;3.35;;
75798;SDS011;70422;44.692;37.768;2023-06-01T06:26:50;8.77;;;4.68;;
75798;SDS011;70422;44.692;37.768;2023-06-01T06:27:51;7.30;;;4.85;;
75798;SDS011;70422;44.692;37.768;2023-06-01T06:28:53;6.22;;;3.10;;
75798;SDS011;70422;44.692;37.768;2023-06-01T06:29:56;6.07;;;3.30;;
75798;SDS011;70422;44.692;37.768;2023-06-01T06:30:58;5.10;;;2.90;;